createdAt,value
2023-02-02T00:02:04.511Z,35.13
2023-02-02T00:04:53.135Z,34.25
2023-02-02T00:07:43.793Z,35.72
2023-02-02T00:10:34.286Z,30.80
2023-02-02T00:13:22.929Z,31.70
2023-02-02T00:16:37.073Z,32.60
2023-02-02T00:19:30.055Z,30.80
2023-02-02T00:22:18.653Z,28.70
2023-02-02T00:25:08.180Z,27.77
2023-02-02T00:27:56.873Z,27.98
2023-02-02T00:30:45.663Z,30.40
2023-02-02T00:33:34.364Z,28.23
2023-02-02T00:36:24.887Z,32.20
2023-02-02T00:39:18.499Z,27.90
2023-02-02T00:42:07.184Z,29.55
2023-02-02T00:45:13.180Z,28.92
2023-02-02T00:48:01.796Z,28.02
2023-02-02T00:50:50.522Z,27.35
2023-02-02T00:53:40.464Z,26.67
2023-02-02T00:56:29.234Z,26.42
2023-02-02T00:59:17.845Z,25.77
2023-02-02T01:02:06.639Z,28.05
2023-02-02T01:04:55.259Z,24.70
2023-02-02T01:07:44.145Z,21.90
2023-02-02T01:10:34.732Z,23.42
2023-02-02T01:13:23.328Z,23.13
2023-02-02T01:16:12.765Z,25.05
2023-02-02T01:19:01.446Z,22.08
2023-02-02T01:21:51.133Z,21.42
2023-02-02T01:24:39.772Z,23.70
2023-02-02T01:27:29.880Z,24.27
2023-02-02T01:30:18.516Z,22.60
2023-02-02T01:33:07.191Z,21.58
2023-02-02T01:35:57.206Z,18.17
2023-02-02T01:38:45.863Z,20.83
2023-02-02T01:41:34.525Z,18.48
2023-02-02T01:45:00.242Z,17.33
2023-02-02T01:47:52.898Z,18.23
2023-02-02T01:50:41.673Z,15.63
2023-02-02T01:53:30.576Z,14.77
2023-02-02T01:56:22.618Z,15.45
2023-02-02T01:59:12.128Z,14.88
2023-02-02T02:02:00.847Z,17.83
2023-02-02T02:04:51.698Z,19.27
2023-02-02T02:07:42.071Z,14.68
2023-02-02T02:10:30.654Z,14.60
2023-02-02T02:13:19.433Z,14.40
2023-02-02T02:16:20.324Z,13.48
2023-02-02T02:19:16.814Z,15.55
2023-02-02T02:22:28.560Z,17.08
2023-02-02T02:25:55.850Z,15.15
2023-02-02T02:29:06.347Z,14.57
2023-02-02T02:32:15.690Z,15.75
2023-02-02T02:35:06.874Z,13.75
2023-02-02T02:38:00.366Z,15.25
2023-02-02T02:40:52.763Z,13.65
2023-02-02T02:43:44.011Z,12.07
2023-02-02T02:46:33.172Z,11.27
2023-02-02T02:49:23.182Z,18.85
2023-02-02T02:52:11.762Z,15.45
2023-02-02T02:55:01.737Z,10.60
2023-02-02T02:58:06.626Z,13.00
2023-02-02T03:01:06.660Z,14.23
2023-02-02T03:04:03.790Z,15.77
2023-02-02T03:06:56.748Z,10.20
2023-02-02T03:09:46.011Z,9.13
2023-02-02T03:12:34.598Z,14.20
2023-02-02T03:15:23.619Z,9.15
2023-02-02T03:18:13.185Z,12.38
2023-02-02T03:21:02.172Z,10.90
2023-02-02T03:23:52.235Z,10.27
2023-02-02T03:26:40.924Z,8.80
2023-02-02T03:29:29.984Z,9.60
2023-02-02T03:32:18.730Z,8.15
2023-02-02T03:35:08.282Z,8.15
2023-02-02T03:37:57.118Z,8.77
2023-02-02T03:40:47.124Z,9.38
2023-02-02T03:43:35.658Z,6.97
2023-02-02T03:46:24.368Z,7.78
2023-02-02T03:49:12.999Z,9.23
2023-02-02T03:52:02.684Z,7.88
2023-02-02T03:54:51.294Z,8.80
2023-02-02T03:57:41.247Z,8.40
2023-02-02T04:00:29.841Z,7.03
2023-02-02T04:03:18.479Z,6.70
2023-02-02T04:06:07.477Z,7.43
2023-02-02T04:08:56.083Z,7.15
2023-02-02T04:11:44.705Z,7.07
2023-02-02T04:14:34.748Z,10.23
2023-02-02T04:17:23.337Z,6.55
2023-02-02T04:20:13.414Z,5.65
2023-02-02T04:23:02.026Z,4.75
2023-02-02T04:25:51.069Z,6.90
2023-02-02T04:28:39.632Z,6.35
2023-02-02T04:31:30.196Z,6.00
2023-02-02T04:34:19.090Z,6.38
2023-02-02T04:37:07.721Z,7.18
2023-02-02T04:39:56.320Z,5.13
2023-02-02T04:42:45.417Z,6.25
2023-02-02T04:45:34.134Z,5.97
2023-02-02T04:48:24.179Z,5.30
2023-02-02T04:51:14.724Z,4.85
2023-02-02T04:54:03.364Z,5.55
2023-02-02T04:56:51.967Z,4.45
2023-02-02T04:59:42.468Z,5.35
2023-02-02T05:02:31.190Z,4.45
2023-02-02T05:05:21.423Z,5.57
2023-02-02T05:08:11.999Z,5.00
2023-02-02T05:11:00.959Z,3.75
2023-02-02T05:13:51.006Z,3.63
2023-02-02T05:16:40.333Z,3.70
2023-02-02T05:19:28.979Z,5.55
2023-02-02T05:22:18.956Z,3.78
2023-02-02T05:25:08.545Z,3.67
2023-02-02T05:27:57.197Z,5.60
2023-02-02T05:30:45.866Z,19.63
2023-02-02T05:33:34.490Z,8.35
2023-02-02T05:36:23.045Z,13.15
2023-02-02T05:39:13.178Z,29.58
2023-02-02T05:42:01.791Z,5.95
2023-02-02T05:44:50.364Z,11.25
2023-02-02T05:47:38.986Z,5.30
2023-02-02T05:50:27.638Z,9.50
2023-02-02T05:53:16.416Z,4.95
2023-02-02T05:56:07.063Z,7.75
2023-02-02T05:58:55.648Z,7.40
2023-02-02T06:01:44.400Z,10.35
2023-02-02T06:04:33.105Z,3.00
2023-02-02T06:07:21.773Z,5.35
2023-02-02T06:10:11.161Z,5.78
2023-02-02T06:13:01.265Z,6.85
2023-02-02T06:15:49.972Z,3.80
2023-02-02T06:18:39.116Z,5.45
2023-02-02T06:21:31.050Z,3.75
2023-02-02T06:24:19.830Z,14.57
2023-02-02T06:27:09.030Z,8.90
2023-02-02T06:29:59.054Z,8.75
2023-02-02T06:32:47.616Z,3.22
2023-02-02T06:35:37.407Z,2.88
2023-02-02T06:38:26.125Z,3.28
2023-02-02T06:41:14.718Z,2.78
2023-02-02T06:44:10.598Z,3.17
2023-02-02T06:47:03.886Z,12.38
2023-02-02T06:49:52.942Z,3.42
2023-02-02T06:52:41.506Z,2.63
2023-02-02T06:55:30.106Z,2.80
2023-02-02T06:58:18.661Z,4.03
2023-02-02T07:01:08.741Z,9.45
2023-02-02T07:03:58.945Z,7.88
2023-02-02T07:06:47.911Z,8.43
2023-02-02T07:09:36.998Z,3.03
2023-02-02T07:12:26.841Z,6.50
2023-02-02T07:15:15.480Z,3.20
2023-02-02T07:18:04.062Z,3.00
2023-02-02T07:20:54.083Z,4.13
2023-02-02T07:23:42.676Z,3.90
2023-02-02T07:26:31.358Z,5.00
2023-02-02T07:29:20.026Z,3.75
2023-02-02T07:32:08.767Z,4.45
2023-02-02T07:34:57.440Z,4.32
2023-02-02T07:37:53.538Z,6.20
2023-02-02T07:40:42.203Z,7.90
2023-02-02T07:43:30.932Z,4.40
2023-02-02T07:46:20.868Z,3.35
2023-02-02T07:49:09.574Z,4.65
2023-02-02T07:51:58.294Z,4.28
2023-02-02T07:54:48.792Z,3.72
2023-02-02T07:57:37.480Z,4.13
2023-02-02T08:00:26.630Z,2.80
2023-02-02T08:03:15.616Z,2.30
2023-02-02T08:06:11.862Z,1.73
2023-02-02T08:09:01.420Z,1.40
2023-02-02T08:11:51.431Z,5.50
2023-02-02T08:14:40.064Z,1.83
2023-02-02T08:17:28.700Z,2.40
2023-02-02T08:20:17.583Z,2.25
2023-02-02T08:23:09.196Z,2.22
2023-02-02T08:26:07.420Z,1.35
2023-02-02T08:28:58.696Z,2.45
2023-02-02T08:31:47.466Z,2.33
2023-02-02T08:34:36.957Z,3.45
2023-02-02T08:37:25.600Z,3.25
2023-02-02T08:40:14.873Z,2.83
2023-02-02T08:43:04.276Z,3.78
2023-02-02T08:46:01.093Z,3.15
2023-02-02T08:48:52.313Z,2.42
2023-02-02T08:51:41.714Z,0.82
2023-02-02T08:54:30.623Z,1.25
2023-02-02T08:57:19.440Z,3.30
2023-02-02T09:00:09.489Z,2.38
2023-02-02T09:02:59.800Z,1.08
2023-02-02T09:05:49.443Z,2.08
2023-02-02T09:08:38.840Z,1.55
2023-02-02T09:11:27.831Z,1.25
2023-02-02T09:14:16.926Z,2.88
2023-02-02T09:17:05.660Z,2.47
2023-02-02T09:19:55.569Z,4.00
2023-02-02T09:22:44.224Z,0.60
2023-02-02T09:25:32.923Z,2.78
2023-02-02T09:28:21.533Z,1.48
2023-02-02T09:31:10.607Z,1.75
2023-02-02T09:34:03.271Z,0.60
2023-02-02T09:36:54.320Z,0.55
2023-02-02T09:39:43.149Z,1.33
2023-02-02T09:42:44.781Z,0.55
2023-02-02T09:45:38.911Z,1.63
2023-02-02T09:48:33.430Z,1.90
2023-02-02T09:51:25.216Z,1.77
2023-02-02T09:54:20.155Z,0.75
2023-02-02T09:57:15.733Z,1.02
2023-02-02T10:00:05.758Z,0.73
2023-02-02T10:02:58.589Z,0.50
2023-02-02T10:05:52.200Z,0.57
2023-02-02T10:08:45.642Z,2.05
2023-02-02T10:11:38.866Z,3.17
2023-02-02T10:14:32.204Z,1.52
2023-02-02T10:17:33.346Z,1.77
2023-02-02T10:20:33.670Z,1.25
2023-02-02T10:23:27.153Z,1.10
2023-02-02T10:26:19.476Z,0.52
2023-02-02T10:29:16.983Z,1.27
2023-02-02T10:32:22.461Z,0.90
2023-02-02T10:35:29.813Z,0.60
2023-02-02T10:38:22.465Z,0.57
2023-02-02T10:41:19.885Z,1.60
2023-02-02T10:44:19.314Z,0.93
2023-02-02T10:47:11.529Z,0.65
2023-02-02T10:50:15.141Z,1.45
2023-02-02T10:53:08.444Z,0.38
2023-02-02T10:56:00.854Z,0.63
2023-02-02T10:58:55.107Z,0.60
2023-02-02T11:01:45.161Z,0.55
2023-02-02T11:04:51.518Z,1.00
2023-02-02T11:07:40.088Z,0.47
2023-02-02T11:10:28.745Z,0.60
2023-02-02T11:13:28.686Z,2.17
2023-02-02T11:16:22.863Z,0.43
2023-02-02T11:19:34.287Z,0.43
2023-02-02T11:22:30.899Z,0.30
2023-02-02T11:25:28.576Z,0.55
2023-02-02T11:28:21.670Z,0.38
2023-02-02T11:31:12.912Z,0.82
2023-02-02T11:34:13.093Z,0.95
2023-02-02T11:37:06.043Z,0.75
2023-02-02T11:39:54.655Z,0.45
2023-02-02T11:42:46.231Z,0.40
2023-02-02T11:45:37.404Z,0.63
2023-02-02T11:48:30.466Z,0.32
2023-02-02T11:51:24.383Z,0.98
2023-02-02T11:54:29.039Z,0.20
2023-02-02T11:57:20.585Z,0.25
2023-02-02T12:00:18.936Z,0.20
2023-02-02T12:03:24.876Z,0.20
2023-02-02T12:06:21.472Z,0.20
2023-02-02T12:09:13.927Z,0.25
2023-02-02T12:12:09.276Z,0.70
2023-02-02T12:15:04.776Z,0.40
2023-02-02T12:17:57.197Z,0.43
2023-02-02T12:20:51.138Z,0.40
2023-02-02T12:24:00.600Z,0.38
2023-02-02T12:26:52.103Z,0.95
2023-02-02T12:30:10.084Z,0.50
2023-02-02T12:33:13.815Z,217.35
2023-02-02T12:36:23.261Z,391.02
2023-02-02T12:39:22.698Z,217.82
2023-02-02T12:42:30.518Z,183.30
2023-02-02T12:45:36.797Z,114.95
2023-02-02T12:48:35.884Z,108.20
2023-02-02T12:51:44.498Z,109.13
2023-02-02T12:54:57.699Z,108.65
2023-02-02T12:57:55.452Z,107.38
2023-02-02T13:01:11.292Z,108.70
2023-02-02T13:04:12.878Z,109.68
2023-02-02T13:07:13.598Z,113.53
2023-02-02T13:10:08.734Z,103.70
2023-02-02T13:13:00.722Z,105.57
2023-02-02T13:15:52.585Z,98.63
2023-02-02T13:18:47.548Z,100.80
2023-02-02T13:21:37.432Z,89.10
2023-02-02T13:24:32.007Z,92.45
2023-02-02T13:27:22.102Z,95.03
2023-02-02T13:30:15.647Z,95.13
2023-02-02T13:33:07.055Z,85.97
2023-02-02T13:36:00.074Z,78.25
2023-02-02T13:38:48.706Z,82.85
2023-02-02T13:41:38.158Z,85.10
2023-02-02T13:44:32.128Z,75.35
2023-02-02T13:47:24.415Z,66.85
2023-02-02T13:50:16.828Z,66.63
2023-02-02T13:53:20.709Z,68.68
2023-02-02T13:56:25.705Z,67.70
2023-02-02T13:59:26.519Z,66.10
2023-02-02T14:02:23.761Z,71.18
2023-02-02T14:05:25.924Z,66.55
2023-02-02T14:08:20.727Z,64.07
2023-02-02T14:11:09.861Z,70.43
2023-02-02T14:14:18.041Z,55.00
2023-02-02T14:17:08.320Z,60.15
2023-02-02T14:19:57.838Z,53.95
2023-02-02T14:22:50.833Z,56.05
2023-02-02T14:26:07.118Z,46.67
2023-02-02T14:28:55.716Z,55.53
2023-02-02T14:31:54.250Z,47.55
2023-02-02T14:34:43.420Z,42.90
2023-02-02T14:37:40.593Z,49.72
2023-02-02T14:40:35.552Z,45.72
2023-02-02T14:43:45.138Z,45.20
2023-02-02T14:46:36.759Z,40.83
2023-02-02T14:49:27.614Z,38.30
2023-02-02T14:52:22.971Z,41.03
2023-02-02T14:55:19.801Z,41.25
2023-02-02T14:58:09.053Z,42.10
2023-02-02T15:01:08.375Z,41.10
2023-02-02T15:03:58.895Z,42.85
2023-02-02T15:06:48.000Z,34.95
2023-02-02T15:09:39.250Z,38.83
2023-02-02T15:12:34.447Z,35.42
2023-02-02T15:15:25.581Z,27.70
2023-02-02T15:18:18.703Z,11.45
2023-02-02T15:21:08.412Z,7.65
2023-02-02T15:23:57.609Z,6.30
2023-02-02T15:26:47.106Z,7.65
2023-02-02T15:29:41.535Z,4.40
2023-02-02T15:32:30.924Z,5.75
2023-02-02T15:35:23.298Z,8.25
2023-02-02T15:38:17.439Z,7.78
2023-02-02T15:41:07.605Z,5.97
2023-02-02T15:43:56.527Z,8.00
2023-02-02T15:46:45.260Z,6.13
2023-02-02T15:49:35.782Z,5.28
2023-02-02T15:52:28.349Z,8.68
2023-02-02T15:55:23.008Z,6.38
2023-02-02T15:58:30.036Z,8.05
2023-02-02T16:01:21.272Z,11.10
2023-02-02T16:04:16.616Z,6.25
2023-02-02T16:07:06.455Z,5.97
2023-02-02T16:09:56.514Z,2.80
2023-02-02T16:12:45.185Z,4.65
2023-02-02T16:15:33.811Z,5.25
2023-02-02T16:18:22.472Z,4.88
2023-02-02T16:21:17.007Z,7.32
2023-02-02T16:24:06.798Z,3.17
2023-02-02T16:27:00.015Z,1.67
2023-02-02T16:29:48.861Z,1.77
2023-02-02T16:32:39.741Z,6.32
2023-02-02T16:35:36.282Z,4.75
2023-02-02T16:38:26.522Z,3.28
2023-02-02T16:41:26.014Z,2.05
2023-02-02T16:44:38.898Z,1.63
2023-02-02T16:47:38.851Z,1.45
2023-02-02T16:50:31.949Z,2.25
2023-02-02T16:53:24.063Z,2.97
2023-02-02T16:56:23.232Z,3.42
2023-02-02T16:59:18.794Z,2.72
2023-02-02T17:02:21.236Z,2.08
2023-02-02T17:05:19.303Z,7.53
2023-02-02T17:08:08.365Z,1.65
2023-02-02T17:11:06.581Z,4.47
2023-02-02T17:13:56.393Z,1.55
2023-02-02T17:16:45.018Z,7.82
2023-02-02T17:19:35.197Z,2.55
2023-02-02T17:22:25.554Z,2.85
2023-02-02T17:25:17.040Z,1.20
2023-02-02T17:28:10.838Z,2.55
2023-02-02T17:31:01.457Z,4.60
2023-02-02T17:33:50.214Z,1.88
2023-02-02T17:36:40.367Z,1.75
2023-02-02T17:39:29.053Z,3.33
2023-02-02T17:42:23.277Z,2.08
2023-02-02T17:45:21.135Z,9.57
2023-02-02T17:48:12.707Z,2.13
2023-02-02T17:51:11.237Z,1.95
2023-02-02T17:54:01.577Z,3.30
2023-02-02T17:56:51.855Z,1.58
2023-02-02T17:59:40.586Z,2.47
2023-02-02T18:02:30.537Z,9.13
2023-02-02T18:05:21.481Z,10.40
2023-02-02T18:08:11.701Z,24.90
2023-02-02T18:11:02.333Z,23.30
2023-02-02T18:13:51.072Z,30.20
2023-02-02T18:16:40.276Z,36.10
2023-02-02T18:19:31.379Z,47.67
2023-02-02T18:22:22.756Z,54.35
2023-02-02T18:25:11.880Z,44.50
2023-02-02T18:28:07.605Z,36.65
2023-02-02T18:30:56.662Z,42.15
2023-02-02T18:33:45.987Z,38.30
2023-02-02T18:36:36.300Z,34.13
2023-02-02T18:39:25.081Z,42.70
2023-02-02T18:42:14.602Z,30.13
2023-02-02T18:45:06.213Z,30.75
2023-02-02T18:47:55.380Z,26.35
2023-02-02T18:50:44.020Z,19.38
2023-02-02T18:53:32.880Z,28.77
2023-02-02T18:56:21.490Z,24.15
2023-02-02T18:59:10.305Z,23.75
2023-02-02T19:02:00.391Z,22.30
2023-02-02T19:05:02.892Z,24.48
2023-02-02T19:07:58.181Z,22.48
2023-02-02T19:10:47.365Z,16.58
2023-02-02T19:13:36.102Z,17.58
2023-02-02T19:16:27.255Z,18.85
2023-02-02T19:19:24.886Z,17.52
2023-02-02T19:22:20.761Z,12.07
2023-02-02T19:25:13.108Z,17.05
2023-02-02T19:28:04.805Z,15.63
2023-02-02T19:30:54.624Z,11.68
2023-02-02T19:33:45.300Z,11.05
2023-02-02T19:36:38.224Z,11.27
2023-02-02T19:39:30.737Z,8.65
2023-02-02T19:42:19.480Z,10.85
2023-02-02T19:45:22.344Z,13.68
2023-02-02T19:48:16.858Z,15.20
2023-02-02T19:51:27.988Z,8.13
2023-02-02T19:54:26.422Z,12.50
2023-02-02T19:57:20.717Z,9.70
2023-02-02T20:00:20.102Z,8.88
2023-02-02T20:03:12.578Z,11.93
2023-02-02T20:06:01.313Z,7.88
2023-02-02T20:08:49.931Z,7.43
2023-02-02T20:11:41.430Z,10.13
2023-02-02T20:14:32.690Z,8.75
2023-02-02T20:17:26.536Z,10.27
2023-02-02T20:20:23.907Z,8.85
2023-02-02T20:23:24.539Z,12.50
2023-02-02T20:26:22.888Z,5.68
2023-02-02T20:29:22.301Z,5.57
2023-02-02T20:32:18.807Z,5.95
2023-02-02T20:35:22.680Z,6.88
2023-02-02T20:38:19.911Z,6.10
2023-02-02T20:41:08.611Z,6.20
2023-02-02T20:43:57.152Z,7.50
2023-02-02T20:46:47.213Z,4.57
2023-02-02T20:49:36.183Z,8.07
2023-02-02T20:52:25.307Z,3.33
2023-02-02T20:55:14.200Z,5.38
2023-02-02T20:58:03.191Z,5.55
2023-02-02T21:00:51.976Z,4.43
2023-02-02T21:03:42.133Z,4.65
2023-02-02T21:06:30.725Z,5.35
2023-02-02T21:09:19.411Z,3.42
2023-02-02T21:12:08.160Z,3.67
2023-02-02T21:14:56.847Z,2.83
2023-02-02T21:17:45.519Z,1.90
2023-02-02T21:20:35.462Z,5.43
2023-02-02T21:23:24.112Z,4.70
2023-02-02T21:26:12.739Z,3.05
2023-02-02T21:29:01.458Z,2.28
2023-02-02T21:31:50.071Z,4.07
2023-02-02T21:34:42.029Z,6.53
2023-02-02T21:37:32.281Z,5.43
2023-02-02T21:40:27.571Z,4.85
2023-02-02T21:43:18.358Z,3.17
2023-02-02T21:46:07.078Z,3.53
2023-02-02T21:48:55.802Z,6.63
2023-02-02T21:51:44.395Z,12.27
2023-02-02T21:54:38.594Z,3.53
2023-02-02T21:57:36.132Z,2.72
2023-02-02T22:00:33.617Z,2.65
2023-02-02T22:03:32.542Z,2.53
2023-02-02T22:06:26.937Z,3.58
2023-02-02T22:09:20.241Z,4.40
2023-02-02T22:12:18.492Z,6.47
2023-02-02T22:15:18.172Z,1.48
2023-02-02T22:18:14.516Z,1.42
2023-02-02T22:21:03.072Z,2.72
2023-02-02T22:23:51.758Z,1.30
2023-02-02T22:26:40.312Z,3.20
2023-02-02T22:29:31.166Z,4.05
2023-02-02T22:32:19.699Z,1.88
2023-02-02T22:35:12.611Z,2.58
2023-02-02T22:38:01.190Z,3.15
2023-02-02T22:40:51.303Z,1.38
2023-02-02T22:43:40.023Z,1.38
2023-02-02T22:46:30.094Z,1.35
2023-02-02T22:49:18.750Z,1.05
2023-02-02T22:52:07.508Z,0.50
2023-02-02T22:54:56.058Z,1.30
2023-02-02T22:57:44.800Z,1.42
2023-02-02T23:00:34.485Z,0.68
2023-02-02T23:03:24.685Z,1.42
2023-02-02T23:06:13.325Z,0.65
2023-02-02T23:09:01.897Z,1.95
2023-02-02T23:11:50.493Z,1.75
2023-02-02T23:14:39.128Z,1.30
2023-02-02T23:17:27.757Z,3.00
2023-02-02T23:20:18.715Z,1.40
2023-02-02T23:23:07.338Z,0.68
2023-02-02T23:25:55.905Z,0.40
2023-02-02T23:28:44.495Z,2.75
2023-02-02T23:31:33.199Z,0.30
2023-02-02T23:34:21.955Z,1.98
2023-02-02T23:37:14.409Z,3.13
2023-02-02T23:40:03.014Z,1.17
2023-02-02T23:42:51.627Z,0.82
2023-02-02T23:45:40.385Z,0.32
2023-02-02T23:48:29.120Z,1.40
2023-02-02T23:51:17.894Z,0.85
2023-02-02T23:54:08.226Z,1.35
2023-02-02T23:56:57.201Z,0.40
2023-02-02T23:59:45.920Z,0.20
